Time;durP1;ratioP1;P1;durP2;ratioP2;P2;SDS_P1;SDS_P2;PMS_P1;PMS_P2;Temp;Humidity;BMP_temperature;BMP_pressure;BME280_temperature;BME280_humidity;BME280_pressure;Samples;Min_cycle;Max_cycle;Signal;HPM_P1;HPM_P2
2022/06/04 00:00:48;;;;;;;2.50;2.30;;;19.40;99.90;;;;;;5035325;28;20254;-80
2022/06/04 00:03:13;;;;;;;4.70;2.55;;;19.40;99.90;;;;;;5017272;28;20163;-80
2022/06/04 00:05:42;;;;;;;3.25;2.40;;;19.30;99.90;;;;;;5035094;28;20174;-80
2022/06/04 00:08:09;;;;;;;2.60;2.30;;;19.20;99.90;;;;;;5017047;28;20172;-81
2022/06/04 00:16:15;;;;;;;7.57;2.55;;;19.20;99.90;;;;;;5035331;28;20721;-81
2022/06/04 00:18:41;;;;;;;5.70;2.50;;;19.20;99.90;;;;;;5034607;28;20265;-80
2022/06/04 00:21:09;;;;;;;3.03;2.40;;;19.30;99.90;;;;;;5033442;28;20172;-80
2022/06/04 00:23:35;;;;;;;6.60;2.30;;;19.20;99.90;;;;;;5017133;28;20250;-81
2022/06/04 00:26:02;;;;;;;2.60;2.40;;;19.00;99.90;;;;;;5017138;28;20207;-81
2022/06/04 00:28:28;;;;;;;7.70;2.22;;;19.00;99.90;;;;;;5034600;28;20191;-80
2022/06/04 00:30:56;;;;;;;2.72;1.70;;;18.90;99.90;;;;;;5016837;28;20241;-80
2022/06/04 00:33:22;;;;;;;6.32;1.92;;;18.90;99.90;;;;;;5016999;28;20167;-80
2022/06/04 00:35:52;;;;;;;2.85;2.00;;;19.00;99.90;;;;;;5034805;28;20168;-80
2022/06/04 00:38:21;;;;;;;2.92;2.10;;;19.20;99.90;;;;;;5016816;28;20687;-80
2022/06/04 00:40:49;;;;;;;11.95;1.85;;;19.10;99.90;;;;;;5016692;28;20176;-81
2022/06/04 00:43:15;;;;;;;4.40;1.95;;;19.00;99.90;;;;;;5034180;28;20171;-79
2022/06/04 00:46:01;;;;;;;3.45;1.80;;;19.00;99.90;;;;;;5034072;28;20266;-80
2022/06/04 00:48:27;;;;;;;4.30;1.90;;;18.80;99.90;;;;;;5002789;28;20257;-80
2022/06/04 00:50:52;;;;;;;1.60;1.50;;;18.70;99.90;;;;;;5016548;28;20636;-80
2022/06/04 00:53:18;;;;;;;3.25;2.20;;;18.70;99.90;;;;;;5034199;28;20617;-81
2022/06/04 00:56:09;;;;;;;2.45;1.83;;;18.80;99.90;;;;;;5034301;28;20234;-80
2022/06/04 00:58:54;;;;;;;6.90;1.80;;;18.80;99.90;;;;;;5034121;28;20204;-80
2022/06/04 01:01:22;;;;;;;1.70;1.60;;;18.90;99.90;;;;;;5016067;28;20175;-81
2022/06/04 01:04:08;;;;;;;1.95;1.80;;;18.80;99.90;;;;;;5033771;28;20657;-81
2022/06/04 01:06:50;;;;;;;1.73;1.60;;;18.90;99.90;;;;;;5016509;28;20669;-81
2022/06/04 01:09:36;;;;;;;3.33;1.73;;;18.80;99.90;;;;;;5034083;28;20175;-81
2022/06/04 01:12:32;;;;;;;1.85;1.75;;;18.60;99.90;;;;;;5034238;28;20199;-80
2022/06/04 01:15:13;;;;;;;1.80;1.70;;;18.50;99.90;;;;;;5033846;28;20210;-81
2022/06/04 01:17:44;;;;;;;3.47;1.40;;;18.60;99.90;;;;;;5016126;28;20528;-81
2022/06/04 01:20:40;;;;;;;1.65;1.55;;;18.60;99.90;;;;;;5033508;28;20290;-81
2022/06/04 01:23:25;;;;;;;4.13;1.98;;;18.50;99.90;;;;;;5015942;28;20176;-81
2022/06/04 01:26:03;;;;;;;5.38;1.90;;;18.60;99.90;;;;;;5033518;28;20636;-81
2022/06/04 01:28:31;;;;;;;3.42;1.58;;;18.50;99.90;;;;;;5033594;28;20211;-81
2022/06/04 01:31:02;;;;;;;2.75;1.90;;;18.50;99.90;;;;;;5015648;28;20592;-81
2022/06/04 01:33:38;;;;;;;2.20;1.67;;;18.60;99.90;;;;;;5015731;28;20641;-81
2022/06/04 01:36:10;;;;;;;2.28;1.58;;;18.60;99.90;;;;;;5015832;28;20204;-81
2022/06/04 01:38:38;;;;;;;3.10;1.65;;;18.40;99.90;;;;;;5033361;28;20222;-81
2022/06/04 01:41:15;;;;;;;3.00;2.20;;;18.40;99.90;;;;;;5015714;28;20571;-81
2022/06/04 01:44:00;;;;;;;2.42;1.63;;;18.40;99.90;;;;;;5033377;28;20172;-81
2022/06/04 01:46:45;;;;;;;3.10;1.40;;;18.40;99.90;;;;;;5033287;28;20632;-81
2022/06/04 01:49:28;;;;;;;6.78;1.90;;;18.50;99.90;;;;;;5033211;28;20203;-81
2022/06/04 01:52:02;;;;;;;2.00;1.48;;;18.40;99.90;;;;;;5015639;28;20163;-81
2022/06/04 01:54:47;;;;;;;3.15;2.05;;;18.50;99.90;;;;;;5033394;28;20186;-81
2022/06/04 01:57:35;;;;;;;2.17;1.75;;;18.40;99.90;;;;;;5033133;28;20290;-80
2022/06/04 02:00:07;;;;;;;6.07;1.98;;;18.50;99.90;;;;;;5032583;28;20615;-81
2022/06/04 02:02:46;;;;;;;3.78;1.30;;;18.50;99.90;;;;;;5032742;28;20172;-81
2022/06/04 02:05:19;;;;;;;5.35;1.70;;;18.50;99.90;;;;;;5032894;28;20173;-81
2022/06/04 02:07:49;;;;;;;4.50;1.88;;;18.50;99.90;;;;;;5032925;28;20164;-80
2022/06/04 02:10:31;;;;;;;2.85;1.98;;;18.50;99.90;;;;;;5032884;28;20175;-81
2022/06/04 02:13:05;;;;;;;11.73;2.17;;;18.50;99.90;;;;;;5032795;28;20187;-80
2022/06/04 02:15:38;;;;;;;4.93;1.60;;;18.40;99.90;;;;;;5015145;28;20180;-80
2022/06/04 02:18:05;;;;;;;6.32;1.90;;;18.30;99.90;;;;;;5032577;28;20168;-81
2022/06/04 02:20:31;;;;;;;13.25;1.75;;;18.20;99.90;;;;;;5014555;28;20258;-80
2022/06/04 02:22:57;;;;;;;1.77;1.67;;;18.00;99.90;;;;;;5014151;28;20171;-80
2022/06/04 02:25:23;;;;;;;2.90;2.03;;;18.10;99.90;;;;;;5032637;28;20168;-81
2022/06/04 02:27:52;;;;;;;2.47;1.88;;;18.10;99.90;;;;;;5032583;28;20172;-81
2022/06/04 02:30:20;;;;;;;5.90;1.63;;;18.10;99.90;;;;;;5032358;28;20164;-81
2022/06/04 02:33:15;;;;;;;2.60;1.70;;;18.00;99.90;;;;;;5015218;28;20202;-81
2022/06/04 02:35:55;;;;;;;2.65;1.42;;;18.10;99.90;;;;;;5011901;28;20180;-80
2022/06/04 02:38:23;;;;;;;1.70;1.60;;;17.80;99.90;;;;;;5032237;28;20274;-81
2022/06/04 02:41:18;;;;;;;11.60;1.92;;;17.90;99.90;;;;;;5031826;28;20206;-81
2022/06/04 02:43:58;;;;;;;7.40;1.85;;;18.10;99.90;;;;;;5031490;28;20175;-80
2022/06/04 02:46:46;;;;;;;2.90;1.90;;;18.10;99.90;;;;;;5032530;28;20174;-81
2022/06/04 02:49:15;;;;;;;2.83;1.23;;;18.10;99.90;;;;;;5015388;28;20409;-80
2022/06/04 02:51:46;;;;;;;2.47;2.13;;;18.10;99.90;;;;;;5032222;28;20663;-81
2022/06/04 02:54:45;;;;;;;1.90;1.80;;;18.10;99.90;;;;;;5032438;28;20718;-80
2022/06/04 02:57:13;;;;;;;7.53;1.63;;;17.80;99.90;;;;;;4999939;28;20186;-80
2022/06/04 02:59:40;;;;;;;2.58;1.75;;;17.70;99.90;;;;;;5014345;28;20212;-81
2022/06/04 03:02:10;;;;;;;2.42;2.00;;;17.80;99.90;;;;;;5031998;28;20667;-81
2022/06/04 03:04:44;;;;;;;1.58;1.48;;;17.70;99.90;;;;;;5031910;28;20168;-81
2022/06/04 03:07:10;;;;;;;10.75;1.70;;;17.80;99.90;;;;;;5014138;28;20541;-81
2022/06/04 03:09:38;;;;;;;3.38;1.80;;;17.80;99.90;;;;;;5032543;28;20219;-80
2022/06/04 03:12:04;;;;;;;4.47;1.77;;;17.80;99.90;;;;;;5014487;28;20207;-81
2022/06/04 03:14:30;;;;;;;4.03;2.03;;;17.70;99.90;;;;;;5014268;28;20171;-80
2022/06/04 03:16:56;;;;;;;2.00;1.70;;;17.70;99.90;;;;;;5014571;28;20527;-80
2022/06/04 03:19:21;;;;;;;5.32;1.58;;;17.80;99.90;;;;;;5014313;28;20207;-81
2022/06/04 03:21:47;;;;;;;2.75;2.15;;;17.70;99.90;;;;;;5032174;28;20168;-80
2022/06/04 03:24:13;;;;;;;3.88;2.10;;;17.70;99.90;;;;;;5032183;28;20176;-81
2022/06/04 03:26:40;;;;;;;2.15;1.95;;;17.80;99.90;;;;;;5031658;28;20168;-80
2022/06/04 03:29:05;;;;;;;4.60;1.88;;;17.70;99.90;;;;;;5013851;28;20188;-81
2022/06/04 03:31:32;;;;;;;2.03;1.92;;;17.70;99.90;;;;;;5031965;28;20528;-81
2022/06/04 03:33:57;;;;;;;2.15;1.90;;;17.70;99.90;;;;;;5031866;28;20186;-80
2022/06/04 03:36:27;;;;;;;1.85;1.75;;;17.40;99.90;;;;;;5014086;28;20176;-81
2022/06/04 03:39:00;;;;;;;1.63;1.48;;;17.30;99.90;;;;;;5013661;28;20199;-81
2022/06/04 03:41:26;;;;;;;4.85;2.00;;;17.40;99.90;;;;;;5014229;28;20647;-80
2022/06/04 03:43:52;;;;;;;3.75;1.70;;;17.30;99.90;;;;;;5031819;28;20172;-80
2022/06/04 03:46:25;;;;;;;10.38;1.77;;;17.20;99.90;;;;;;5031474;28;20203;-81
2022/06/04 03:48:56;;;;;;;3.60;2.28;;;16.90;99.90;;;;;;5013596;28;20199;-81
2022/06/04 03:51:23;;;;;;;3.35;1.65;;;17.00;99.90;;;;;;5014335;28;20247;-80
2022/06/04 03:53:49;;;;;;;2.67;1.60;;;16.70;99.90;;;;;;5032087;28;20172;-81
2022/06/04 03:56:16;;;;;;;4.88;1.90;;;16.80;99.90;;;;;;5035372;28;20640;-81
2022/06/04 03:58:41;;;;;;;3.08;1.70;;;16.70;99.90;;;;;;5035217;28;20265;-80
2022/06/04 04:01:14;;;;;;;2.22;1.88;;;16.90;99.90;;;;;;5017697;28;20172;-80
2022/06/04 04:03:40;;;;;;;6.82;2.03;;;17.10;99.90;;;;;;5017452;28;20179;-81
2022/06/04 04:06:06;;;;;;;2.03;1.90;;;17.00;99.90;;;;;;5034773;28;20172;-80
2022/06/04 04:08:31;;;;;;;17.75;2.67;;;17.00;99.90;;;;;;5034903;28;20709;-80
2022/06/04 04:10:57;;;;;;;7.47;1.67;;;17.00;99.90;;;;;;5017307;28;20167;-80
2022/06/04 04:13:22;;;;;;;2.45;1.80;;;16.90;99.90;;;;;;5034617;28;20178;-81
2022/06/04 04:15:48;;;;;;;5.38;1.90;;;16.90;99.90;;;;;;5034922;28;20218;-80
2022/06/04 04:18:14;;;;;;;5.35;2.03;;;17.10;99.90;;;;;;5034436;28;20555;-81
2022/06/04 04:20:43;;;;;;;3.22;1.83;;;17.20;99.90;;;;;;5017666;28;20168;-80
2022/06/04 04:23:09;;;;;;;2.70;1.83;;;17.10;99.90;;;;;;5017584;28;20502;-80
2022/06/04 04:25:36;;;;;;;3.42;2.30;;;16.90;99.90;;;;;;5017122;28;20178;-80
2022/06/04 04:28:03;;;;;;;3.75;1.63;;;16.80;99.90;;;;;;5017035;28;20633;-81
2022/06/04 04:30:31;;;;;;;4.20;1.90;;;16.70;99.90;;;;;;5034923;28;20164;-81
2022/06/04 04:32:57;;;;;;;4.32;1.90;;;16.70;99.90;;;;;;5017272;28;20183;-80
2022/06/04 04:35:27;;;;;;;2.83;2.13;;;16.70;99.90;;;;;;5034726;28;20684;-81
2022/06/04 04:37:53;;;;;;;7.95;2.08;;;16.70;99.90;;;;;;5034583;28;20637;-81
2022/06/04 04:40:22;;;;;;;3.15;2.30;;;16.80;99.90;;;;;;5017143;28;20218;-80
2022/06/04 04:42:48;;;;;;;3.35;1.92;;;16.80;99.90;;;;;;5016853;28;20172;-81
2022/06/04 04:45:14;;;;;;;4.45;1.80;;;16.80;99.90;;;;;;5016869;28;20172;-81
2022/06/04 04:47:42;;;;;;;2.53;2.20;;;16.80;99.90;;;;;;5034500;28;20160;-82
2022/06/04 04:50:15;;;;;;;2.45;1.90;;;16.90;99.90;;;;;;5034000;28;20219;-82
2022/06/04 04:52:41;;;;;;;5.95;2.25;;;16.70;99.90;;;;;;5033980;28;20164;-81
2022/06/04 04:55:07;;;;;;;7.28;1.98;;;16.80;99.90;;;;;;5034175;28;20306;-81
2022/06/04 04:57:32;;;;;;;4.50;1.95;;;16.80;99.90;;;;;;5033927;28;20704;-79
2022/06/04 04:59:58;;;;;;;2.30;2.10;;;16.90;99.90;;;;;;5016397;28;20306;-79
2022/06/04 05:02:24;;;;;;;2.25;1.63;;;16.90;99.90;;;;;;5016461;28;20172;-80
2022/06/04 05:04:49;;;;;;;6.93;2.03;;;16.70;99.90;;;;;;5016334;28;20199;-80
2022/06/04 05:07:15;;;;;;;2.15;1.70;;;16.80;99.90;;;;;;5015824;28;20535;-80
2022/06/04 05:09:41;;;;;;;2.33;1.73;;;16.90;99.90;;;;;;5016320;28;20195;-80
2022/06/04 05:12:08;;;;;;;3.70;2.35;;;16.90;99.90;;;;;;5016710;28;20183;-79
2022/06/04 05:14:37;;;;;;;3.33;2.17;;;17.00;99.90;;;;;;5033824;28;20510;-80
2022/06/04 05:17:04;;;;;;;5.30;2.45;;;17.00;99.90;;;;;;5033848;28;20164;-80
2022/06/04 05:19:31;;;;;;;2.72;2.30;;;17.00;99.90;;;;;;5015825;28;20212;-80
2022/06/04 05:21:57;;;;;;;2.38;1.90;;;16.80;99.90;;;;;;5016169;28;20179;-80
2022/06/04 05:24:29;;;;;;;2.42;1.77;;;16.80;99.90;;;;;;5016085;28;20258;-79
2022/06/04 05:26:55;;;;;;;2.33;2.10;;;16.90;99.90;;;;;;5016263;28;20667;-81
2022/06/04 05:29:22;;;;;;;2.53;2.00;;;16.90;99.90;;;;;;5033696;28;20215;-80
2022/06/04 05:31:49;;;;;;;2.35;2.15;;;16.80;99.90;;;;;;5015885;28;20187;-80
2022/06/04 05:34:17;;;;;;;6.63;2.65;;;16.80;99.90;;;;;;5015801;28;20168;-80
2022/06/04 05:36:44;;;;;;;2.92;2.15;;;16.90;99.90;;;;;;5033560;28;20221;-79
2022/06/04 05:39:14;;;;;;;3.38;2.65;;;16.60;99.90;;;;;;5033516;28;20196;-80
2022/06/04 05:41:41;;;;;;;5.68;2.53;;;16.60;99.90;;;;;;5033710;28;20163;-81
2022/06/04 05:44:07;;;;;;;2.85;2.08;;;16.60;99.90;;;;;;5015691;28;20168;-81
2022/06/04 05:46:33;;;;;;;5.28;2.45;;;16.80;99.90;;;;;;5033335;28;20179;-79
2022/06/04 05:48:59;;;;;;;4.53;2.50;;;16.70;99.90;;;;;;5033199;28;20242;-81
2022/06/04 05:51:29;;;;;;;2.75;2.20;;;16.90;99.90;;;;;;5015589;28;20191;-81
2022/06/04 05:53:55;;;;;;;3.53;2.08;;;17.00;99.90;;;;;;5015628;28;20259;-81
2022/06/04 05:56:26;;;;;;;6.05;2.90;;;16.90;99.90;;;;;;5033438;28;20179;-80
2022/06/04 05:58:54;;;;;;;3.50;2.65;;;16.80;99.90;;;;;;5032917;28;20613;-80
2022/06/04 06:01:21;;;;;;;2.63;2.17;;;16.70;99.90;;;;;;5015411;28;20167;-81
2022/06/04 06:03:48;;;;;;;3.03;2.40;;;16.90;99.90;;;;;;5033184;28;20175;-80
2022/06/04 06:06:23;;;;;;;2.92;2.10;;;16.70;99.90;;;;;;5015713;28;20179;-82
2022/06/04 06:08:49;;;;;;;4.13;2.20;;;16.70;99.90;;;;;;5015477;28;20219;-83
2022/06/04 06:11:17;;;;;;;4.18;2.72;;;16.90;99.90;;;;;;5015441;28;20207;-82
2022/06/04 06:13:44;;;;;;;5.55;2.58;;;16.90;99.90;;;;;;5032949;28;20182;-82
2022/06/04 06:16:15;;;;;;;3.35;3.05;;;16.80;99.90;;;;;;5032915;28;20191;-82
2022/06/04 06:18:41;;;;;;;3.88;2.67;;;16.90;99.90;;;;;;5032675;28;20204;-82
2022/06/04 06:21:13;;;;;;;3.80;2.40;;;16.90;99.90;;;;;;5014947;28;20203;-81
2022/06/04 06:23:39;;;;;;;6.30;2.58;;;17.00;99.90;;;;;;5033089;28;20164;-82
2022/06/04 06:26:07;;;;;;;3.60;2.70;;;16.90;99.90;;;;;;5032744;28;20164;-82
2022/06/04 06:28:39;;;;;;;2.95;2.75;;;17.00;99.90;;;;;;5014626;28;20283;-81
2022/06/04 06:31:06;;;;;;;3.28;2.30;;;17.10;99.90;;;;;;5014808;28;20196;-81
2022/06/04 06:33:33;;;;;;;7.50;2.67;;;17.30;99.90;;;;;;5032215;28;20751;-81
2022/06/04 06:36:01;;;;;;;8.13;3.28;;;17.40;99.90;;;;;;5014581;28;20187;-81
2022/06/04 06:38:27;;;;;;;3.05;2.70;;;17.50;99.90;;;;;;5014532;28;20237;-81
2022/06/04 06:40:54;;;;;;;3.85;2.50;;;17.60;99.90;;;;;;5032518;28;20168;-81
2022/06/04 06:43:21;;;;;;;4.20;2.97;;;17.40;99.90;;;;;;5032544;28;20175;-86
2022/06/04 06:45:47;;;;;;;4.28;2.42;;;17.30;99.90;;;;;;5017693;28;20211;-82
2022/06/04 06:48:12;;;;;;;6.10;2.92;;;17.30;99.90;;;;;;5044098;28;20237;-81
2022/06/04 06:50:38;;;;;;;6.57;2.83;;;17.20;99.90;;;;;;5032836;28;20175;-82
2022/06/04 06:53:05;;;;;;;6.20;2.85;;;17.30;99.90;;;;;;5052130;28;20197;-84
2022/06/04 06:55:30;;;;;;;6.10;2.88;;;17.30;99.90;;;;;;5051917;28;20178;-81
2022/06/04 06:57:56;;;;;;;4.50;2.92;;;17.40;99.90;;;;;;5035226;28;20171;-80
2022/06/04 07:00:22;;;;;;;2.45;2.25;;;17.40;99.90;;;;;;5036325;28;20207;-81
2022/06/04 07:02:48;;;;;;;3.85;3.03;;;17.60;99.90;;;;;;5013936;28;20171;-80
2022/06/04 07:05:14;;;;;;;3.38;2.75;;;17.70;99.90;;;;;;5031376;28;20255;-82
2022/06/04 07:07:40;;;;;;;4.22;2.70;;;17.70;99.90;;;;;;5025779;28;20254;-81
2022/06/04 07:10:06;;;;;;;12.05;3.38;;;17.80;99.90;;;;;;5033829;28;20195;-82
2022/06/04 07:12:32;;;;;;;6.28;3.33;;;17.90;99.90;;;;;;5050810;28;20195;-81
2022/06/04 07:14:58;;;;;;;4.72;2.83;;;18.20;99.90;;;;;;5049893;28;20237;-82
2022/06/04 07:17:24;;;;;;;4.20;3.00;;;18.20;99.90;;;;;;5051696;28;20254;-82
2022/06/04 07:19:50;;;;;;;4.97;3.03;;;18.30;99.90;;;;;;5046008;28;20282;-82
2022/06/04 07:22:16;;;;;;;4.63;3.15;;;18.40;99.90;;;;;;5030791;28;20226;-81
2022/06/04 07:24:41;;;;;;;7.32;3.03;;;18.60;99.90;;;;;;5015270;28;20164;-87
2022/06/04 07:27:08;;;;;;;6.60;3.10;;;19.10;99.90;;;;;;5018174;28;20171;-88
2022/06/04 07:29:35;;;;;;;3.70;3.40;;;18.80;99.90;;;;;;5037541;28;20195;-90
2022/06/04 07:32:04;;;;;;;3.60;2.75;;;19.00;99.90;;;;;;5038944;28;20233;-83
2022/06/04 07:34:29;;;;;;;5.18;2.85;;;19.20;99.90;;;;;;5037618;28;20511;-84
2022/06/04 07:36:55;;;;;;;3.42;3.10;;;19.80;99.90;;;;;;5038216;28;20175;-83
2022/06/04 07:39:22;;;;;;;3.13;2.83;;;19.70;99.90;;;;;;5038169;28;20206;-83
2022/06/04 07:41:54;;;;;;;10.00;3.50;;;19.60;99.90;;;;;;5055439;28;20171;-83
2022/06/04 07:44:23;;;;;;;4.97;3.63;;;19.90;99.90;;;;;;5037849;28;20539;-83
2022/06/04 07:46:49;;;;;;;3.75;3.30;;;20.00;99.90;;;;;;5037535;28;20163;-83
2022/06/04 07:49:17;;;;;;;3.42;3.03;;;20.20;99.90;;;;;;5055236;28;20193;-83
2022/06/04 07:51:45;;;;;;;6.07;3.50;;;20.40;99.90;;;;;;5055603;28;20199;-83
2022/06/04 07:54:11;;;;;;;5.72;3.75;;;20.20;99.90;;;;;;5037480;28;20178;-83
2022/06/04 07:56:38;;;;;;;5.80;3.10;;;20.30;99.90;;;;;;5055176;28;20167;-82
2022/06/04 07:59:05;;;;;;;5.57;3.90;;;20.30;99.90;;;;;;5037190;28;20290;-83
2022/06/04 08:01:33;;;;;;;4.15;3.65;;;20.10;99.90;;;;;;5055321;28;20221;-84
2022/06/04 08:03:59;;;;;;;6.28;3.38;;;20.20;99.90;;;;;;5037663;28;20223;-84
2022/06/04 08:06:25;;;;;;;4.57;4.15;;;19.80;99.90;;;;;;5055422;28;20172;-83
2022/06/04 08:08:54;;;;;;;6.88;3.88;;;19.80;99.90;;;;;;5037245;28;20192;-84
2022/06/04 08:11:33;;;;;;;5.20;3.78;;;19.80;99.90;;;;;;5037119;28;20237;-83
2022/06/04 08:14:00;;;;;;;6.53;3.90;;;19.70;99.90;;;;;;5037070;28;20662;-82
2022/06/04 08:16:25;;;;;;;6.25;4.20;;;19.70;99.90;;;;;;5037129;28;20177;-83
2022/06/04 08:18:51;;;;;;;7.88;5.15;;;19.90;99.90;;;;;;5054728;28;20199;-83
2022/06/04 08:21:16;;;;;;;4.45;4.05;;;19.90;99.90;;;;;;5037141;28;20178;-82
2022/06/04 08:23:44;;;;;;;6.05;3.97;;;19.70;99.90;;;;;;5037044;28;20191;-82
2022/06/04 08:26:12;;;;;;;9.32;4.40;;;19.60;99.90;;;;;;5036952;28;20206;-82
2022/06/04 08:28:37;;;;;;;5.72;4.30;;;19.50;99.90;;;;;;5036400;28;20179;-82
2022/06/04 08:31:07;;;;;;;9.73;4.68;;;19.40;99.90;;;;;;5037053;28;20262;-83
2022/06/04 08:33:32;;;;;;;7.38;5.03;;;19.60;99.90;;;;;;5036486;28;20250;-83
2022/06/04 08:35:58;;;;;;;6.85;4.55;;;19.90;99.90;;;;;;5036914;28;20171;-83
2022/06/04 08:38:37;;;;;;;3.90;3.50;;;20.20;99.90;;;;;;5038050;28;20202;-92
2022/06/04 08:41:06;;;;;;;5.25;4.82;;;20.10;99.90;;;;;;5041512;28;20175;-92
2022/06/04 08:47:23;;;;;;;5.80;4.85;;;20.00;99.90;;;;;;5006061;28;20211;-89
2022/06/04 08:50:10;;;;;;;6.03;4.78;;;20.10;99.90;;;;;;5038483;28;20187;-88
2022/06/04 08:52:50;;;;;;;9.10;4.95;;;20.40;99.90;;;;;;5037908;28;20221;-88
2022/06/04 08:58:31;;;;;;;6.50;5.13;;;20.30;99.90;;;;;;5055391;28;20190;-88
2022/06/04 09:01:12;;;;;;;7.95;5.10;;;20.00;99.90;;;;;;5038697;28;20648;-86
2022/06/04 09:04:16;;;;;;;5.22;4.78;;;20.00;99.90;;;;;;5039304;28;20171;-88
2022/06/04 09:07:08;;;;;;;5.00;4.35;;;20.00;99.90;;;;;;5037445;28;20614;-88
2022/06/04 09:09:46;;;;;;;12.50;5.43;;;20.40;99.90;;;;;;5037348;28;20206;-88
2022/06/04 09:12:18;;;;;;;4.97;4.53;;;20.90;99.90;;;;;;5040411;28;20186;-93
2022/06/04 09:14:52;;;;;;;6.05;5.07;;;21.10;99.90;;;;;;5054412;28;20243;-90
2022/06/04 09:17:54;;;;;;;8.30;5.57;;;21.30;99.90;;;;;;5058583;28;20166;-96
2022/06/04 09:20:42;;;;;;;8.18;4.88;;;21.30;99.90;;;;;;5046965;28;20924;-90
2022/06/04 09:28:43;;;;;;;5.85;4.78;;;22.00;99.90;;;;;;5582032;22;20218;-94
2022/06/04 09:31:39;;;;;;;7.50;5.13;;;22.10;99.90;;;;;;5056581;28;20199;-87
2022/06/04 09:34:14;;;;;;;17.58;6.07;;;22.60;99.90;;;;;;5055570;28;20195;-87
2022/06/04 09:36:42;;;;;;;8.25;6.80;;;22.40;99.90;;;;;;5060953;28;20163;-89
2022/06/04 09:39:35;;;;;;;9.52;5.55;;;22.50;99.90;;;;;;5054363;28;20199;-91
2022/06/04 09:42:15;;;;;;;19.88;5.90;;;22.30;99.90;;;;;;5054217;28;20229;-90
2022/06/04 09:45:02;;;;;;;15.02;6.18;;;22.30;99.90;;;;;;5054248;28;20257;-89
2022/06/04 09:47:39;;;;;;;6.28;5.45;;;22.20;99.90;;;;;;5055290;28;20222;-90
2022/06/04 09:50:39;;;;;;;7.30;5.45;;;22.10;99.90;;;;;;5054134;28;20204;-91
2022/06/04 09:53:23;;;;;;;6.28;5.75;;;22.40;99.90;;;;;;5052556;28;20173;-93
2022/06/04 09:55:57;;;;;;;6.75;5.85;;;22.30;99.90;;;;;;5055151;28;20186;-93
2022/06/04 09:58:29;;;;;;;6.57;5.90;;;22.50;99.90;;;;;;5052496;28;20209;-93
2022/06/04 10:01:00;;;;;;;7.35;5.82;;;22.40;99.90;;;;;;5039408;28;20186;-92
2022/06/04 10:03:28;;;;;;;6.60;5.95;;;22.30;99.90;;;;;;5050132;28;20623;-92
2022/06/04 10:05:59;;;;;;;8.70;6.32;;;22.70;99.90;;;;;;5034060;28;20225;-93
2022/06/04 10:08:26;;;;;;;8.90;5.93;;;23.10;99.90;;;;;;5035393;28;20204;-93
2022/06/04 10:11:04;;;;;;;8.90;7.45;;;22.90;99.90;;;;;;5034757;28;20211;-93
2022/06/04 10:13:48;;;;;;;6.68;6.07;;;22.70;99.90;;;;;;5036739;28;20198;-92
2022/06/04 10:16:21;;;;;;;7.10;6.40;;;22.50;99.90;;;;;;5034276;28;20168;-91
2022/06/04 10:18:59;;;;;;;6.43;5.78;;;22.50;99.90;;;;;;5035115;28;20188;-94
2022/06/04 10:21:29;;;;;;;9.30;7.45;;;22.50;99.90;;;;;;5034735;28;20171;-90
2022/06/04 10:23:57;;;;;;;9.52;6.80;;;22.10;99.90;;;;;;5042118;28;20160;-93
2022/06/04 10:26:38;;;;;;;7.00;6.45;;;22.00;99.90;;;;;;5035623;28;20207;-94
2022/06/04 10:29:04;;;;;;;8.20;7.38;;;22.00;99.90;;;;;;5045397;28;20274;-93
2022/06/04 10:32:02;;;;;;;7.82;6.40;;;22.10;99.90;;;;;;5054974;28;20259;-93
2022/06/04 10:34:53;;;;;;;8.25;7.45;;;22.10;99.90;;;;;;5003677;28;20278;-90
2022/06/04 10:37:27;;;;;;;11.15;7.30;;;22.00;99.90;;;;;;5053789;28;20643;-92
2022/06/04 10:40:34;;;;;;;7.45;6.80;;;22.00;99.90;;;;;;5053411;28;20229;-91
2022/06/04 10:43:02;;;;;;;13.77;6.82;;;22.00;99.90;;;;;;5005898;28;20588;-90
2022/06/04 10:45:45;;;;;;;11.73;6.95;;;21.70;99.90;;;;;;5053511;28;20246;-91
2022/06/04 10:48:26;;;;;;;7.60;6.80;;;21.90;99.90;;;;;;5052291;28;20167;-86
2022/06/04 10:51:27;;;;;;;9.98;7.03;;;21.80;99.90;;;;;;5051971;28;20179;-87
2022/06/04 10:54:01;;;;;;;9.45;7.13;;;22.00;99.90;;;;;;5047226;28;20210;-86
2022/06/04 10:56:45;;;;;;;7.28;6.72;;;22.00;99.90;;;;;;5052459;28;20174;-90
2022/06/04 10:59:27;;;;;;;8.88;7.20;;;22.20;99.90;;;;;;5036394;28;20195;-86
2022/06/04 11:02:11;;;;;;;28.88;7.63;;;22.10;99.90;;;;;;5052141;28;20265;-88
2022/06/04 11:04:41;;;;;;;12.95;6.57;;;22.10;99.90;;;;;;5053844;28;20317;-86
2022/06/04 11:07:25;;;;;;;9.48;7.93;;;22.20;99.90;;;;;;5056359;28;20185;-89
2022/06/04 11:09:52;;;;;;;7.63;6.93;;;22.30;99.90;;;;;;5057392;28;20202;-85
2022/06/04 11:12:47;;;;;;;10.40;6.50;;;22.20;99.90;;;;;;5056536;28;20163;-86
2022/06/04 11:15:19;;;;;;;16.33;7.93;;;22.30;99.90;;;;;;5053207;28;20183;-86
2022/06/04 11:18:13;;;;;;;8.80;7.82;;;22.20;99.90;;;;;;5059157;28;20170;-89
2022/06/04 11:20:56;;;;;;;11.52;7.75;;;22.30;99.90;;;;;;5056935;28;20222;-88
2022/06/04 11:23:44;;;;;;;12.80;7.50;;;22.20;99.90;;;;;;5052242;28;20178;-89
2022/06/04 11:26:45;;;;;;;8.45;7.25;;;22.30;99.90;;;;;;5056958;28;20171;-91
2022/06/04 11:29:14;;;;;;;9.13;8.25;;;22.50;99.90;;;;;;5040073;28;20221;-87
2022/06/04 11:31:54;;;;;;;8.63;7.93;;;22.50;99.90;;;;;;5056170;28;20647;-89
2022/06/04 11:34:50;;;;;;;15.55;8.10;;;22.50;99.90;;;;;;5056094;28;20186;-90
2022/06/04 11:37:24;;;;;;;13.55;8.38;;;22.50;99.90;;;;;;5039011;28;20176;-89
2022/06/04 11:40:20;;;;;;;12.43;7.88;;;22.40;99.90;;;;;;5016783;28;20273;-86
2022/06/04 11:42:53;;;;;;;13.80;8.52;;;22.30;99.90;;;;;;5023065;28;20173;-91
2022/06/04 11:45:51;;;;;;;9.48;8.57;;;22.50;99.90;;;;;;5030366;28;20184;-92
2022/06/04 11:48:34;;;;;;;9.75;8.50;;;22.60;99.90;;;;;;5016694;28;20196;-86
2022/06/04 11:51:03;;;;;;;11.55;7.93;;;22.80;99.90;;;;;;5015974;28;20553;-85
2022/06/04 11:53:37;;;;;;;11.98;9.85;;;22.80;99.90;;;;;;5016211;28;20632;-88
2022/06/04 11:56:20;;;;;;;9.18;7.97;;;22.60;99.90;;;;;;5016546;28;20211;-89
2022/06/04 11:58:59;;;;;;;10.52;9.50;;;22.70;99.90;;;;;;5018400;28;20200;-84
2022/06/04 12:01:44;;;;;;;10.65;9.20;;;22.60;99.90;;;;;;5024364;28;20185;-84
2022/06/04 12:04:24;;;;;;;20.73;8.93;;;22.60;99.90;;;;;;5024903;28;20173;-84
2022/06/04 12:07:24;;;;;;;11.57;8.82;;;22.70;99.90;;;;;;5024191;28;20599;-85
2022/06/04 12:10:06;;;;;;;13.32;7.93;;;22.80;99.90;;;;;;5022036;28;20258;-84
2022/06/04 12:12:50;;;;;;;9.05;8.25;;;23.00;99.90;;;;;;5025020;28;20200;-85
2022/06/04 12:15:32;;;;;;;14.45;8.60;;;23.00;99.90;;;;;;5025072;28;20263;-84
2022/06/04 12:18:05;;;;;;;9.05;7.95;;;23.20;99.90;;;;;;5025360;28;20272;-84
2022/06/04 12:26:36;;;;;;;9.93;9.05;;;23.30;99.90;;;;;;5024662;28;20176;-84
2022/06/04 12:29:25;;;;;;;12.88;9.35;;;23.40;99.90;;;;;;5022209;28;20322;-85
2022/06/04 12:31:57;;;;;;;15.80;8.38;;;23.30;99.90;;;;;;5021265;28;20223;-84
2022/06/04 12:34:37;;;;;;;10.75;8.30;;;23.40;99.90;;;;;;5021951;28;20192;-84
2022/06/04 12:37:20;;;;;;;12.82;8.27;;;23.40;99.90;;;;;;5021678;28;20281;-85
2022/06/04 12:39:46;;;;;;;12.88;8.27;;;23.50;99.90;;;;;;5021601;28;20250;-86
2022/06/04 12:42:24;;;;;;;15.02;10.18;;;23.60;99.90;;;;;;5022788;28;20177;-85
2022/06/04 12:44:58;;;;;;;9.48;8.48;;;23.60;99.90;;;;;;5016761;28;20178;-87
2022/06/04 12:47:25;;;;;;;9.02;8.13;;;23.70;99.90;;;;;;5021318;28;20319;-84
2022/06/04 12:49:57;;;;;;;10.15;8.65;;;23.70;99.90;;;;;;5021948;28;20188;-85
2022/06/04 12:52:35;;;;;;;14.35;9.38;;;23.90;99.90;;;;;;5022635;28;20195;-86
2022/06/04 12:55:23;;;;;;;14.50;8.63;;;23.90;99.90;;;;;;5019204;28;20188;-85
2022/06/04 12:58:02;;;;;;;12.32;8.15;;;23.90;99.90;;;;;;5006810;28;20173;-92
2022/06/04 13:00:33;;;;;;;12.27;8.93;;;24.10;99.90;;;;;;5017065;28;20211;-88
2022/06/04 13:03:04;;;;;;;14.77;8.07;;;24.00;99.90;;;;;;5014474;28;20252;-87
2022/06/04 13:05:30;;;;;;;9.57;7.95;;;23.90;99.90;;;;;;5014796;28;20180;-87
2022/06/04 13:08:11;;;;;;;12.13;8.25;;;24.00;99.90;;;;;;5014256;28;20691;-86
2022/06/04 13:10:45;;;;;;;11.27;7.22;;;24.10;99.90;;;;;;5015636;28;20260;-86
2022/06/04 13:13:29;;;;;;;10.43;7.85;;;24.10;99.90;;;;;;5014924;28;20262;-87
2022/06/04 13:16:03;;;;;;;8.65;7.68;;;24.10;99.90;;;;;;5014753;28;20179;-88
2022/06/04 13:18:33;;;;;;;10.38;7.53;;;24.30;99.90;;;;;;5014738;28;20195;-87
2022/06/04 13:21:01;;;;;;;7.95;6.63;;;24.30;99.90;;;;;;5013864;28;20208;-87
2022/06/04 13:23:47;;;;;;;9.02;7.82;;;24.50;99.90;;;;;;5015186;28;20186;-89
2022/06/04 13:26:30;;;;;;;8.70;7.10;;;24.40;99.90;;;;;;5014825;28;20186;-88
2022/06/04 13:28:56;;;;;;;8.20;6.78;;;24.40;99.90;;;;;;5014187;28;20204;-87
2022/06/04 13:31:29;;;;;;;10.20;7.18;;;24.50;99.90;;;;;;5014569;28;20655;-87
2022/06/04 13:33:56;;;;;;;26.73;8.15;;;24.70;99.90;;;;;;5013535;28;20207;-87
2022/06/04 13:36:25;;;;;;;8.65;6.50;;;24.80;99.90;;;;;;5014602;28;20178;-90
2022/06/04 13:38:55;;;;;;;9.70;6.43;;;24.80;99.90;;;;;;5013816;28;20200;-89